Time;durP1;ratioP1;P1;durP2;ratioP2;P2;SDS_P1;SDS_P2;PMS_P1;PMS_P2;Temp;Humidity;BMP_temperature;BMP_pressure;BME280_temperature;BME280_humidity;BME280_pressure;Samples;Min_cycle;Max_cycle;Signal;HPM_P1;HPM_P2
2023/11/19 00:00:11;;;;;;;3.13;2.67;;;;;;;2.42;64.42;94695.94;5053973;28;20497;-73
2023/11/19 00:02:40;;;;;;;4.72;2.90;;;;;;;2.49;64.87;94710.09;5070471;28;20032;-74
2023/11/19 00:05:09;;;;;;;3.75;2.85;;;;;;;2.58;64.05;94699.34;5070415;28;20035;-73
2023/11/19 00:07:41;;;;;;;3.97;2.80;;;;;;;2.64;64.16;94724.66;5071759;28;20037;-73
2023/11/19 00:10:09;;;;;;;3.30;2.55;;;;;;;2.60;64.34;94705.22;5070555;28;20725;-73
2023/11/19 00:12:35;;;;;;;3.10;2.30;;;;;;;2.55;64.50;94714.06;5054059;28;20043;-74
2023/11/19 00:15:01;;;;;;;3.35;2.53;;;;;;;2.61;64.45;94712.00;5070282;28;20025;-74
2023/11/19 00:17:27;;;;;;;4.25;2.72;;;;;;;2.55;64.34;94716.63;5070059;28;20032;-74
2023/11/19 00:19:52;;;;;;;2.88;2.35;;;;;;;2.54;63.79;94713.25;5053647;28;20453;-74
2023/11/19 00:22:17;;;;;;;2.35;1.73;;;;;;;2.45;63.76;94708.59;5080407;28;20086;-74
2023/11/19 00:24:43;;;;;;;3.15;2.63;;;;;;;2.38;64.02;94725.22;5073544;28;20482;-74
2023/11/19 00:27:08;;;;;;;3.40;2.40;;;;;;;2.38;64.26;94718.34;5073373;28;20047;-74
2023/11/19 00:29:34;;;;;;;3.78;2.58;;;;;;;2.52;64.31;94709.94;5073436;28;20071;-74
2023/11/19 00:31:59;;;;;;;3.92;2.60;;;;;;;2.50;63.94;94726.31;5091342;28;20036;-74
2023/11/19 00:34:25;;;;;;;3.63;2.60;;;;;;;2.34;63.88;94724.56;5091467;28;20405;-74
2023/11/19 00:36:51;;;;;;;3.50;2.45;;;;;;;2.13;63.80;94677.78;5090007;28;20036;-74
2023/11/19 00:39:17;;;;;;;3.00;2.38;;;;;;;2.62;63.78;94741.06;5091407;28;20028;-73
2023/11/19 00:41:43;;;;;;;3.05;2.42;;;;;;;2.47;63.38;94730.69;5089993;28;20040;-73
2023/11/19 00:44:08;;;;;;;3.05;2.42;;;;;;;2.64;63.64;94734.09;5074508;28;20024;-73
2023/11/19 00:46:34;;;;;;;3.28;2.47;;;;;;;2.42;63.80;94729.25;5036434;28;20462;-74
2023/11/19 00:49:00;;;;;;;3.78;2.97;;;;;;;2.41;63.95;94723.31;5052946;28;20383;-73
2023/11/19 00:51:26;;;;;;;3.47;2.90;;;;;;;2.61;63.75;94740.22;5069818;28;20563;-74
2023/11/19 00:53:52;;;;;;;3.47;2.40;;;;;;;2.67;63.24;94734.78;5069471;28;20056;-74
2023/11/19 00:56:19;;;;;;;3.80;2.70;;;;;;;2.75;63.69;94729.22;5053022;28;20031;-73
2023/11/19 00:58:45;;;;;;;3.60;2.70;;;;;;;2.57;64.15;94743.84;5070703;28;20057;-73
2023/11/19 01:01:14;;;;;;;4.45;2.85;;;;;;;2.44;63.67;94735.97;5069730;28;20023;-74
2023/11/19 01:03:39;;;;;;;3.72;2.83;;;;;;;2.65;63.70;94743.47;5052783;28;20181;-74
2023/11/19 01:06:05;;;;;;;3.83;2.90;;;;;;;2.65;63.75;94746.84;5069545;28;20165;-74
2023/11/19 01:08:31;;;;;;;4.28;2.70;;;;;;;2.45;63.69;94729.09;5036271;28;20020;-73
2023/11/19 01:10:56;;;;;;;3.58;2.78;;;;;;;2.42;63.70;94716.44;5052798;28;20029;-73
2023/11/19 01:13:22;;;;;;;3.00;2.50;;;;;;;2.66;63.50;94740.78;5069726;28;20047;-73
2023/11/19 01:15:47;;;;;;;3.10;2.45;;;;;;;2.45;63.66;94719.69;5069752;28;20063;-74
2023/11/19 01:18:13;;;;;;;3.10;2.35;;;;;;;2.46;63.88;94730.78;5071073;28;20036;-73
2023/11/19 01:20:39;;;;;;;3.15;2.30;;;;;;;2.65;63.28;94734.03;5069460;28;20403;-73
2023/11/19 01:23:04;;;;;;;3.22;2.63;;;;;;;2.46;63.62;94741.03;5051398;28;20016;-73
2023/11/19 01:25:29;;;;;;;4.00;2.50;;;;;;;2.57;63.76;94743.03;5089655;28;20109;-73
2023/11/19 01:27:58;;;;;;;3.42;2.67;;;;;;;2.42;64.49;94736.94;5091080;28;20023;-73
2023/11/19 01:30:24;;;;;;;3.08;2.65;;;;;;;2.45;64.12;94749.59;5093369;28;20069;-73
2023/11/19 01:32:49;;;;;;;3.75;2.80;;;;;;;2.58;64.08;94731.84;5093731;28;20431;-73
2023/11/19 01:35:15;;;;;;;3.05;2.58;;;;;;;2.60;64.58;94753.13;5095153;28;20039;-73
2023/11/19 01:37:40;;;;;;;3.70;2.50;;;;;;;2.60;64.10;94737.75;5093534;28;20119;-73
2023/11/19 01:40:08;;;;;;;3.50;2.67;;;;;;;2.67;63.88;94745.03;5076698;28;20390;-73
2023/11/19 01:42:40;;;;;;;2.88;2.47;;;;;;;2.58;63.45;94745.50;5060460;28;20081;-73
2023/11/19 01:45:09;;;;;;;2.95;2.40;;;;;;;2.52;63.63;94750.13;5094529;28;20410;-73
2023/11/19 01:47:34;;;;;;;3.58;2.50;;;;;;;2.30;63.43;94722.22;5094468;28;20016;-73
2023/11/19 01:50:00;;;;;;;3.10;2.35;;;;;;;2.61;63.31;94750.47;5076540;28;20524;-73
2023/11/19 01:52:25;;;;;;;2.80;2.20;;;;;;;2.33;63.52;94737.44;5076329;28;20400;-73
2023/11/19 01:54:52;;;;;;;3.45;2.63;;;;;;;2.49;63.48;94758.00;5076441;28;20079;-73
2023/11/19 01:57:18;;;;;;;2.90;2.33;;;;;;;2.44;63.63;94750.53;5076279;28;20040;-74
2023/11/19 01:59:43;;;;;;;3.25;2.47;;;;;;;2.46;62.91;94757.22;5076311;28;20098;-74
2023/11/19 02:02:08;;;;;;;3.33;2.58;;;;;;;2.40;63.62;94765.25;5088823;28;20013;-74
2023/11/19 02:04:34;;;;;;;2.88;2.25;;;;;;;2.32;63.17;94762.25;5071316;28;20041;-74
2023/11/19 02:07:00;;;;;;;2.72;2.20;;;;;;;2.52;63.43;94760.41;5072553;28;20029;-74
2023/11/19 02:09:26;;;;;;;3.55;3.03;;;;;;;2.55;63.38;94755.94;5073984;28;20082;-74
2023/11/19 02:11:53;;;;;;;2.90;2.42;;;;;;;2.55;63.01;94750.78;5039469;28;20036;-74
2023/11/19 02:14:19;;;;;;;3.38;2.53;;;;;;;2.49;62.83;94743.44;5055031;28;20032;-73
2023/11/19 02:16:45;;;;;;;3.38;2.30;;;;;;;2.44;62.48;94737.72;5055628;28;20410;-74
2023/11/19 02:19:10;;;;;;;3.20;2.50;;;;;;;2.50;62.42;94737.38;5054510;28;20051;-73
2023/11/19 02:21:36;;;;;;;3.10;2.50;;;;;;;2.43;62.57;94730.94;5055663;28;20028;-74
2023/11/19 02:24:06;;;;;;;2.63;2.13;;;;;;;2.47;62.88;94750.38;5056137;28;20032;-73
2023/11/19 02:26:52;;;;;;;2.90;2.17;;;;;;;2.56;62.08;94744.75;5039202;28;20021;-73
2023/11/19 02:29:17;;;;;;;3.75;2.60;;;;;;;2.50;61.97;94747.63;5072397;28;20121;-73
2023/11/19 02:31:43;;;;;;;3.50;2.47;;;;;;;2.45;62.35;94744.47;5055476;28;20028;-74
2023/11/19 02:34:10;;;;;;;4.28;2.47;;;;;;;2.28;62.66;94757.34;5072301;28;20044;-74
2023/11/19 02:36:36;;;;;;;3.03;2.28;;;;;;;2.28;62.79;94747.09;5055543;28;20402;-73
2023/11/19 02:39:01;;;;;;;3.05;2.42;;;;;;;2.30;63.11;94747.84;5072294;28;20253;-73
2023/11/19 02:41:27;;;;;;;2.92;1.90;;;;;;;2.36;62.53;94743.22;5072085;28;20024;-74
2023/11/19 02:43:53;;;;;;;3.10;2.15;;;;;;;2.37;62.39;94742.34;5073278;28;20028;-74
2023/11/19 02:46:19;;;;;;;5.80;2.50;;;;;;;2.31;62.20;94741.81;5073074;28;20102;-74
2023/11/19 02:48:45;;;;;;;2.83;2.00;;;;;;;2.31;61.92;94739.25;5071955;28;20522;-74
2023/11/19 02:51:11;;;;;;;3.25;2.20;;;;;;;2.28;62.11;94729.16;5073143;28;20016;-74
2023/11/19 02:53:39;;;;;;;2.75;2.00;;;;;;;2.29;62.12;94741.09;5055247;28;20071;-74
2023/11/19 02:56:55;;;;;;;2.60;1.88;;;;;;;2.21;62.13;94749.97;5071933;28;20035;-74
2023/11/19 02:58:54;;;;;;;3.13;2.33;;;;;;;2.19;62.79;94749.22;5061174;28;20068;-74
2023/11/19 03:01:24;;;;;;;3.35;2.42;;;;;;;2.27;62.68;94756.53;5072909;28;20024;-74
2023/11/19 03:03:54;;;;;;;3.03;2.40;;;;;;;2.09;62.84;94744.63;5038527;28;20032;-74
2023/11/19 03:06:21;;;;;;;2.72;1.98;;;;;;;2.11;62.61;94746.22;5072832;28;20483;-73
2023/11/19 03:08:47;;;;;;;3.00;2.10;;;;;;;2.23;62.67;94745.63;5055115;28;20513;-74
2023/11/19 03:11:13;;;;;;;2.70;2.10;;;;;;;1.95;63.21;94719.72;5054947;28;20559;-73
2023/11/19 03:13:39;;;;;;;3.35;2.17;;;;;;;2.13;62.81;94733.34;5054761;28;20032;-72
2023/11/19 03:16:05;;;;;;;3.72;2.20;;;;;;;2.12;62.89;94750.47;5054872;28;20028;-72
2023/11/19 03:18:30;;;;;;;2.72;2.10;;;;;;;2.10;62.27;94759.94;5071540;28;20481;-72
2023/11/19 03:20:57;;;;;;;2.75;2.08;;;;;;;1.84;63.08;94742.47;5072644;28;20082;-73
2023/11/19 03:23:22;;;;;;;3.13;2.00;;;;;;;2.05;62.68;94776.47;5090976;28;20067;-73
2023/11/19 03:25:48;;;;;;;2.53;2.03;;;;;;;2.05;62.53;94767.03;5092683;28;20028;-73
2023/11/19 03:28:13;;;;;;;2.67;2.08;;;;;;;2.21;62.56;94773.06;5074673;28;20040;-73
2023/11/19 03:30:39;;;;;;;2.58;1.80;;;;;;;1.96;62.61;94752.13;5091498;28;20024;-73
2023/11/19 03:33:04;;;;;;;3.35;2.40;;;;;;;2.21;62.70;94767.91;5091504;28;20093;-73
2023/11/19 03:35:30;;;;;;;3.03;2.03;;;;;;;2.16;62.95;94757.06;5091352;28;20031;-73
2023/11/19 03:37:55;;;;;;;2.78;2.15;;;;;;;2.20;62.71;94756.03;5074543;28;20504;-73
2023/11/19 03:40:21;;;;;;;4.18;2.28;;;;;;;2.19;62.58;94753.53;5074299;28;20028;-75
2023/11/19 03:42:46;;;;;;;2.22;1.83;;;;;;;2.27;62.35;94760.84;5091241;28;20024;-74
2023/11/19 03:45:12;;;;;;;4.35;2.17;;;;;;;2.26;62.59;94762.56;5091115;28;20028;-74
2023/11/19 03:47:38;;;;;;;3.05;2.00;;;;;;;2.16;62.27;94764.75;5091114;28;20497;-74
2023/11/19 03:50:04;;;;;;;2.63;1.98;;;;;;;2.06;62.64;94750.75;5074249;28;20032;-74
2023/11/19 03:52:30;;;;;;;2.95;2.30;;;;;;;2.18;63.03;94780.06;5090582;28;20032;-74
2023/11/19 03:54:56;;;;;;;2.80;2.30;;;;;;;2.17;62.56;94786.94;5092185;28;20059;-74
2023/11/19 03:57:21;;;;;;;3.50;2.50;;;;;;;2.08;62.92;94777.13;5090847;28;20115;-74
2023/11/19 03:59:47;;;;;;;2.95;2.00;;;;;;;2.20;62.88;94784.22;5090877;28;20563;-74
2023/11/19 04:02:12;;;;;;;3.35;2.17;;;;;;;2.19;63.04;94782.53;5073985;28;20466;-74
2023/11/19 04:04:41;;;;;;;3.78;2.60;;;;;;;2.17;63.38;94781.81;5090781;28;20055;-74
2023/11/19 04:07:06;;;;;;;3.38;2.30;;;;;;;2.21;62.85;94787.59;5090626;28;20032;-73
2023/11/19 04:09:35;;;;;;;2.97;2.30;;;;;;;2.28;62.75;94801.75;5090720;28;20031;-73
2023/11/19 04:12:00;;;;;;;2.92;2.20;;;;;;;2.31;62.21;94793.09;5074074;28;20074;-74
2023/11/19 04:14:26;;;;;;;2.70;2.00;;;;;;;2.12;62.48;94785.50;5057103;28;20024;-74
2023/11/19 04:16:51;;;;;;;2.72;2.10;;;;;;;2.10;62.67;94795.00;5090428;28;20070;-74
2023/11/19 04:19:17;;;;;;;3.08;2.38;;;;;;;2.20;62.80;94806.44;5073703;28;20028;-73
2023/11/19 04:21:43;;;;;;;2.90;2.00;;;;;;;2.21;62.35;94803.81;5087372;28;20029;-74
2023/11/19 04:24:12;;;;;;;3.25;2.40;;;;;;;2.12;62.82;94781.22;5053645;28;20449;-73
2023/11/19 04:26:42;;;;;;;2.95;2.08;;;;;;;2.30;62.83;94802.50;5070028;28;20040;-75
2023/11/19 04:29:09;;;;;;;3.08;2.10;;;;;;;2.23;62.44;94804.56;5070141;28;20029;-75
2023/11/19 04:31:35;;;;;;;3.65;2.55;;;;;;;2.30;62.81;94794.00;5053446;28;20032;-75
2023/11/19 04:34:00;;;;;;;3.42;2.50;;;;;;;2.35;63.09;94805.69;5069994;28;20028;-75
2023/11/19 04:36:26;;;;;;;2.90;2.17;;;;;;;2.39;62.89;94814.84;5071139;28;20020;-74
2023/11/19 04:38:51;;;;;;;3.65;2.45;;;;;;;2.17;62.81;94804.03;5069862;28;20032;-74
2023/11/19 04:41:17;;;;;;;2.78;2.08;;;;;;;2.20;62.61;94816.69;5053192;28;20025;-74
2023/11/19 04:43:42;;;;;;;2.90;2.25;;;;;;;2.07;63.11;94823.34;5036483;28;20028;-74
2023/11/19 04:46:09;;;;;;;3.15;2.10;;;;;;;2.02;62.95;94823.56;5069757;28;20486;-74
2023/11/19 04:48:35;;;;;;;4.03;2.30;;;;;;;2.22;62.46;94820.84;5069879;28;20037;-74
2023/11/19 04:51:00;;;;;;;3.30;2.47;;;;;;;1.89;63.24;94807.13;5069829;28;20031;-74
2023/11/19 04:53:25;;;;;;;2.97;2.47;;;;;;;2.11;63.00;94810.28;5069658;28;20131;-74
2023/11/19 04:55:51;;;;;;;3.33;2.22;;;;;;;2.18;62.36;94818.53;5069706;28;20024;-74
2023/11/19 04:58:16;;;;;;;3.28;2.17;;;;;;;2.13;62.70;94812.78;5069791;28;20033;-74
2023/11/19 05:00:42;;;;;;;3.25;2.45;;;;;;;2.17;62.71;94811.72;5052979;28;20082;-74
2023/11/19 05:03:08;;;;;;;2.75;2.17;;;;;;;2.22;61.80;94815.72;5052470;28;20410;-74
2023/11/19 05:05:33;;;;;;;3.20;2.30;;;;;;;2.18;62.06;94813.41;5069455;28;20504;-74
2023/11/19 05:07:59;;;;;;;2.60;1.95;;;;;;;2.11;61.82;94823.09;5052900;28;20032;-74
2023/11/19 05:10:24;;;;;;;4.50;2.70;;;;;;;2.31;61.32;94823.84;5070815;28;20045;-74
2023/11/19 05:12:51;;;;;;;6.32;4.10;;;;;;;2.32;61.39;94828.09;5069698;28;20531;-74
2023/11/19 05:15:17;;;;;;;3.72;2.80;;;;;;;2.31;61.90;94846.91;5069520;28;20041;-74
2023/11/19 05:17:42;;;;;;;3.95;2.40;;;;;;;2.16;61.81;94846.78;5069969;28;20033;-74
2023/11/19 05:20:13;;;;;;;3.53;2.55;;;;;;;2.13;61.86;94841.81;5070680;28;20036;-74
2023/11/19 05:22:40;;;;;;;3.13;2.30;;;;;;;2.22;61.43;94846.47;5089828;28;20122;-74
2023/11/19 05:25:06;;;;;;;3.35;1.95;;;;;;;2.19;61.41;94846.63;5046567;28;20041;-74
2023/11/19 05:27:31;;;;;;;3.05;1.90;;;;;;;2.10;61.41;94836.84;5062897;28;20114;-73
2023/11/19 05:29:56;;;;;;;2.58;1.98;;;;;;;2.14;61.09;94838.31;5068658;28;20029;-74
2023/11/19 05:32:22;;;;;;;3.03;1.92;;;;;;;2.09;61.78;94824.94;5069341;28;20028;-74
2023/11/19 05:34:48;;;;;;;4.13;2.78;;;;;;;2.25;61.51;94824.97;5050829;28;20032;-74
2023/11/19 05:37:13;;;;;;;3.65;2.80;;;;;;;2.13;61.96;94841.81;5105064;28;20320;-74
2023/11/19 05:39:39;;;;;;;3.13;2.58;;;;;;;2.02;61.61;94828.69;5050892;28;20044;-74
2023/11/19 05:42:04;;;;;;;4.57;3.20;;;;;;;2.18;61.61;94844.16;5066189;28;20021;-74
2023/11/19 05:44:30;;;;;;;3.58;2.80;;;;;;;2.23;61.43;94834.50;5068251;28;20071;-74
2023/11/19 05:46:56;;;;;;;2.67;2.22;;;;;;;2.12;61.48;94847.84;5067247;28;20036;-74
2023/11/19 05:49:21;;;;;;;3.05;2.13;;;;;;;2.11;61.95;94833.34;5068540;28;20028;-73
2023/11/19 05:51:47;;;;;;;4.00;2.28;;;;;;;1.98;61.80;94817.78;5065946;28;20029;-74
2023/11/19 05:54:13;;;;;;;3.25;2.33;;;;;;;1.93;62.10;94844.53;5067943;28;20055;-74
2023/11/19 05:56:38;;;;;;;2.75;2.22;;;;;;;1.93;62.16;94817.16;5066987;28;20036;-74
2023/11/19 05:59:07;;;;;;;3.13;2.30;;;;;;;2.11;61.67;94838.47;5069219;28;20033;-74
2023/11/19 06:01:34;;;;;;;3.20;2.35;;;;;;;1.95;62.29;94837.56;5067456;28;20063;-74
2023/11/19 06:04:00;;;;;;;3.35;2.42;;;;;;;2.03;61.83;94844.88;5066712;28;20062;-74
2023/11/19 06:06:26;;;;;;;3.65;2.85;;;;;;;1.97;63.25;94863.97;5051493;28;20449;-74
2023/11/19 06:08:52;;;;;;;3.42;2.30;;;;;;;2.08;62.63;94864.25;5099997;28;20037;-74
2023/11/19 06:11:20;;;;;;;4.93;2.70;;;;;;;2.02;62.06;94879.94;5066219;28;20024;-74
2023/11/19 06:13:47;;;;;;;3.50;2.28;;;;;;;2.10;61.67;94882.97;5082574;28;20098;-74
2023/11/19 06:16:13;;;;;;;3.60;2.60;;;;;;;1.77;62.33;94834.19;5072977;28;20131;-74
2023/11/19 06:18:38;;;;;;;3.28;2.05;;;;;;;1.95;62.31;94873.44;5060747;28;20415;-74
2023/11/19 06:21:04;;;;;;;3.85;2.60;;;;;;;1.97;62.69;94867.34;5069005;28;20043;-74
2023/11/19 06:23:29;;;;;;;3.88;2.47;;;;;;;1.96;62.32;94862.31;5071540;28;20028;-74
2023/11/19 06:25:54;;;;;;;3.85;2.33;;;;;;;2.06;62.42;94852.44;5071271;28;20710;-74
2023/11/19 06:28:20;;;;;;;4.43;3.40;;;;;;;2.09;62.42;94865.94;5102166;28;20031;-75
2023/11/19 06:30:45;;;;;;;4.45;2.53;;;;;;;2.04;62.05;94862.78;5069464;28;20186;-74
2023/11/19 06:33:14;;;;;;;2.85;2.15;;;;;;;2.00;62.47;94866.38;5071048;28;20036;-74
2023/11/19 06:35:40;;;;;;;2.95;2.28;;;;;;;2.00;62.31;94874.06;5071199;28;20040;-74
2023/11/19 06:38:05;;;;;;;3.40;2.60;;;;;;;1.93;62.52;94859.91;5071241;28;20457;-75
2023/11/19 06:40:31;;;;;;;5.38;3.10;;;;;;;1.97;62.40;94851.16;5053177;28;20040;-74
2023/11/19 06:42:57;;;;;;;5.85;3.10;;;;;;;1.95;62.22;94856.38;5069909;28;20060;-74
2023/11/19 06:45:22;;;;;;;13.57;5.45;;;;;;;1.92;62.61;94856.50;5087687;28;20070;-74
2023/11/19 06:47:47;;;;;;;4.88;3.45;;;;;;;1.98;62.87;94869.03;5084812;28;20027;-74
2023/11/19 06:50:14;;;;;;;5.10;3.63;;;;;;;2.04;62.48;94880.72;5071212;28;20028;-78
2023/11/19 06:52:40;;;;;;;4.00;2.55;;;;;;;1.92;62.42;94873.59;5076939;28;20032;-72
2023/11/19 06:55:06;;;;;;;3.25;2.33;;;;;;;2.02;62.52;94882.50;5053123;28;20067;-72
2023/11/19 06:57:32;;;;;;;4.40;2.92;;;;;;;2.08;61.65;94866.81;5072224;28;20032;-73
2023/11/19 06:59:58;;;;;;;5.65;3.00;;;;;;;2.07;62.31;94883.13;5070060;28;20051;-72
2023/11/19 07:02:24;;;;;;;10.85;6.30;;;;;;;2.08;62.04;94882.19;5068811;28;20094;-72
2023/11/19 07:04:49;;;;;;;4.32;2.38;;;;;;;1.95;62.54;94884.53;5032624;28;20041;-72
2023/11/19 07:07:15;;;;;;;7.88;4.07;;;;;;;1.92;62.61;94889.81;5066579;28;20059;-72
2023/11/19 07:09:40;;;;;;;4.05;3.03;;;;;;;1.96;62.49;94881.06;5053566;28;20041;-72
2023/11/19 07:12:06;;;;;;;18.45;7.00;;;;;;;1.99;62.20;94875.78;5068276;28;20474;-72
2023/11/19 07:14:31;;;;;;;34.38;12.27;;;;;;;2.10;61.86;94887.28;5054703;28;20029;-72
2023/11/19 07:16:57;;;;;;;6.85;4.82;;;;;;;2.15;61.61;94906.66;5053833;28;20040;-72
2023/11/19 07:19:22;;;;;;;3.40;2.50;;;;;;;2.05;61.78;94902.84;5070441;28;20115;-72
2023/11/19 07:21:48;;;;;;;4.00;2.70;;;;;;;2.04;62.22;94919.16;5066934;28;20545;-72
2023/11/19 07:24:13;;;;;;;5.30;3.10;;;;;;;2.09;61.76;94931.72;5073258;28;20059;-72
2023/11/19 07:26:47;;;;;;;3.50;2.50;;;;;;;2.08;61.45;94922.38;5052467;28;20048;-72
2023/11/19 07:29:12;;;;;;;3.05;2.40;;;;;;;2.07;61.82;94928.44;5085442;28;20078;-71
2023/11/19 07:31:38;;;;;;;4.43;2.83;;;;;;;2.14;61.26;94920.34;5053309;28;20487;-72
2023/11/19 07:34:05;;;;;;;4.13;2.70;;;;;;;2.10;61.30;94915.47;5070692;28;20047;-72
2023/11/19 07:36:30;;;;;;;6.95;3.83;;;;;;;2.15;61.07;94942.53;5053311;28;20419;-72
2023/11/19 07:38:57;;;;;;;7.80;4.70;;;;;;;1.98;61.06;94940.78;5052164;28;20163;-72
2023/11/19 07:41:25;;;;;;;7.22;3.92;;;;;;;2.18;60.57;94937.25;5070278;28;20028;-71
2023/11/19 07:43:51;;;;;;;6.15;3.95;;;;;;;1.94;61.23;94929.00;5070051;28;20033;-72
2023/11/19 07:46:19;;;;;;;7.18;4.10;;;;;;;2.05;61.04;94910.53;5068173;28;20055;-72
2023/11/19 07:48:46;;;;;;;4.28;2.90;;;;;;;2.17;60.83;94938.16;5070073;28;20094;-73
2023/11/19 07:51:12;;;;;;;5.32;3.55;;;;;;;1.95;60.95;94899.06;5051898;28;20086;-72
2023/11/19 07:53:38;;;;;;;4.00;3.00;;;;;;;2.23;60.66;94925.06;5069797;28;20060;-71
2023/11/19 07:56:04;;;;;;;4.95;3.78;;;;;;;2.17;60.75;94935.59;5067507;28;20434;-72
2023/11/19 07:58:29;;;;;;;3.92;3.05;;;;;;;2.17;61.20;94947.56;5066719;28;20402;-71
2023/11/19 08:00:55;;;;;;;5.22;3.45;;;;;;;2.22;60.98;94933.63;5046410;28;20043;-71
2023/11/19 08:03:21;;;;;;;5.53;3.35;;;;;;;2.55;60.36;94916.69;5067570;28;20028;-72
2023/11/19 08:05:47;;;;;;;4.88;3.25;;;;;;;2.73;59.09;94933.72;5070435;28;20068;-72
2023/11/19 08:08:13;;;;;;;4.20;2.85;;;;;;;2.78;58.95;94952.25;5067213;28;20512;-72
2023/11/19 08:10:39;;;;;;;4.03;2.38;;;;;;;2.94;58.31;94946.38;5052937;28;20032;-71
2023/11/19 08:13:05;;;;;;;3.55;2.75;;;;;;;2.82;58.70;94953.78;5069213;28;20501;-72
2023/11/19 08:15:31;;;;;;;4.20;2.78;;;;;;;2.82;58.22;94940.13;5068380;28;20029;-71
2023/11/19 08:17:56;;;;;;;4.05;3.20;;;;;;;2.89;58.06;94942.28;5067062;28;20060;-72
2023/11/19 08:20:22;;;;;;;5.55;3.92;;;;;;;2.95;57.89;94950.59;5068532;28;20024;-71
2023/11/19 08:22:48;;;;;;;4.13;2.88;;;;;;;2.85;58.24;94952.81;5068829;28;20549;-72
2023/11/19 08:25:13;;;;;;;5.65;4.30;;;;;;;2.93;57.96;94955.00;5101591;28;20032;-72
2023/11/19 08:27:39;;;;;;;9.32;6.00;;;;;;;2.99;57.44;94939.28;5067241;28;20036;-73
2023/11/19 08:30:06;;;;;;;10.55;5.03;;;;;;;2.97;58.80;94947.03;5070669;28;20032;-71
2023/11/19 08:32:31;;;;;;;16.67;10.52;;;;;;;2.72;57.67;94905.56;5050473;28;20025;-71
2023/11/19 08:34:56;;;;;;;4.57;2.80;;;;;;;3.10;57.02;94958.34;5102818;28;20513;-71
2023/11/19 08:37:22;;;;;;;4.50;3.25;;;;;;;3.04;57.65;94947.56;5066964;28;20032;-71
2023/11/19 08:39:48;;;;;;;6.97;4.70;;;;;;;2.93;57.71;94942.97;5068095;28;20033;-71
2023/11/19 08:42:13;;;;;;;5.40;3.50;;;;;;;3.13;57.75;94958.19;5050387;28;20445;-71
2023/11/19 08:44:39;;;;;;;5.00;3.45;;;;;;;2.94;57.34;94952.31;5035429;28;20110;-71
2023/11/19 08:47:04;;;;;;;6.00;4.65;;;;;;;3.04;57.19;94938.13;5068860;28;20047;-71
2023/11/19 08:49:30;;;;;;;8.95;7.45;;;;;;;3.17;56.96;94965.72;5049131;28;20028;-72
2023/11/19 08:51:55;;;;;;;5.78;3.25;;;;;;;3.54;56.35;94951.81;5068577;28;20142;-71
2023/11/19 08:54:22;;;;;;;4.57;3.03;;;;;;;3.61;55.84;94937.72;5068005;28;20041;-72
2023/11/19 08:56:48;;;;;;;4.30;2.85;;;;;;;3.74;55.63;94937.88;5052468;28;20056;-71
2023/11/19 08:59:15;;;;;;;7.15;3.28;;;;;;;3.57;55.74;94947.34;5065023;28;20035;-72
2023/11/19 09:01:40;;;;;;;8.27;5.82;;;;;;;3.85;55.81;94968.97;5069925;28;20025;-71
2023/11/19 09:04:06;;;;;;;7.10;4.78;;;;;;;4.07;54.93;94944.66;5034162;28;20024;-71
2023/11/19 09:06:31;;;;;;;4.50;3.55;;;;;;;4.05;54.90;94933.66;5050289;28;20039;-71
2023/11/19 09:09:01;;;;;;;4.20;3.20;;;;;;;4.17;54.24;94948.38;5068327;28;20037;-71
2023/11/19 09:11:26;;;;;;;3.47;2.65;;;;;;;4.32;53.68;94929.53;5099849;28;20028;-71
2023/11/19 09:13:52;;;;;;;4.50;3.33;;;;;;;4.50;53.50;94937.94;5068213;28;20426;-71
2023/11/19 09:16:18;;;;;;;5.03;3.50;;;;;;;4.50;53.29;94921.69;5067711;28;20043;-71
2023/11/19 09:18:43;;;;;;;5.35;3.63;;;;;;;4.33;53.60;94915.75;5072271;28;20410;-72
2023/11/19 09:21:10;;;;;;;4.53;3.60;;;;;;;4.51;52.94;94913.03;5068169;28;20024;-71
2023/11/19 09:23:38;;;;;;;4.10;3.28;;;;;;;4.36;52.65;94925.03;5063251;28;20028;-71
2023/11/19 09:26:05;;;;;;;4.03;2.97;;;;;;;4.40;52.55;94921.38;5066063;28;20452;-72
2023/11/19 09:28:30;;;;;;;3.78;2.90;;;;;;;4.40;53.44;94932.50;5048625;28;20024;-71
2023/11/19 09:30:56;;;;;;;3.85;3.00;;;;;;;4.19;54.34;94938.84;5068862;28;20112;-71
2023/11/19 09:33:21;;;;;;;3.20;2.60;;;;;;;4.41;53.92;94959.88;5066666;28;20029;-70
2023/11/19 09:35:49;;;;;;;3.58;2.63;;;;;;;4.49;53.41;94959.44;5070003;28;20024;-71
2023/11/19 09:38:15;;;;;;;5.00;3.30;;;;;;;4.38;53.36;94933.50;5067570;28;20028;-71
2023/11/19 09:40:40;;;;;;;8.77;4.90;;;;;;;4.14;54.20;94925.41;5051283;28;20044;-72
2023/11/19 09:43:05;;;;;;;3.25;2.50;;;;;;;4.35;53.55;94913.09;5070400;28;20318;-72
2023/11/19 09:45:31;;;;;;;11.32;8.90;;;;;;;4.45;52.96;94899.59;5050161;28;20021;-72
2023/11/19 09:47:57;;;;;;;16.15;9.98;;;;;;;4.53;52.76;94901.75;5049456;28;20111;-72
2023/11/19 09:50:23;;;;;;;16.00;9.82;;;;;;;4.81;52.27;94910.44;5052177;28;20138;-71
2023/11/19 09:52:48;;;;;;;52.05;33.90;;;;;;;4.78;52.27;94867.69;5050492;28;20017;-75
2023/11/19 09:55:14;;;;;;;11.95;8.35;;;;;;;4.75;52.67;94869.63;5063877;28;20048;-71
2023/11/19 09:57:40;;;;;;;4.15;3.22;;;;;;;4.43;52.97;94870.59;5071475;28;20060;-72
2023/11/19 10:00:07;;;;;;;5.63;3.80;;;;;;;4.53;52.17;94818.59;5039550;28;20028;-72
2023/11/19 10:02:33;;;;;;;16.80;9.60;;;;;;;4.55;52.30;94850.22;5069251;28;20040;-71
2023/11/19 10:04:59;;;;;;;13.93;7.43;;;;;;;4.52;52.59;94858.13;5061058;28;20530;-72
2023/11/19 10:07:24;;;;;;;9.32;6.30;;;;;;;4.59;53.39;94852.50;5066235;28;20036;-72
2023/11/19 10:09:50;;;;;;;5.32;3.95;;;;;;;4.80;52.80;94868.44;5038506;28;20047;-70
2023/11/19 10:12:16;;;;;;;3.40;2.90;;;;;;;5.00;52.74;94869.00;5070119;28;20524;-73
2023/11/19 10:14:41;;;;;;;4.47;3.53;;;;;;;4.96;52.01;94858.06;5066865;28;20064;-73
2023/11/19 10:17:07;;;;;;;3.63;2.65;;;;;;;4.90;51.97;94853.25;5051542;28;20055;-75
2023/11/19 10:19:33;;;;;;;5.85;3.10;;;;;;;4.93;52.07;94858.22;5052448;28;20430;-74
2023/11/19 10:22:07;;;;;;;7.45;4.18;;;;;;;4.90;51.92;94879.84;5072717;28;20051;-75
2023/11/19 10:24:33;;;;;;;13.68;7.53;;;;;;;4.96;52.43;94872.66;5064677;28;20049;-72
2023/11/19 10:27:05;;;;;;;7.07;4.80;;;;;;;5.15;51.84;94874.06;5104816;28;20048;-71
2023/11/19 10:29:30;;;;;;;5.30;3.80;;;;;;;5.33;51.58;94879.81;5069927;28;20037;-73
2023/11/19 10:31:57;;;;;;;4.20;3.30;;;;;;;5.31;51.96;94878.25;5076668;28;20087;-73
2023/11/19 10:34:29;;;;;;;4.85;4.15;;;;;;;5.02;51.00;94854.28;5076522;28;20111;-73
2023/11/19 10:36:55;;;;;;;4.40;3.08;;;;;;;4.47;52.27;94859.19;5070129;28;20504;-73
2023/11/19 10:39:21;;;;;;;3.92;2.92;;;;;;;4.83;51.90;94841.69;5069788;28;20036;-75
2023/11/19 10:41:46;;;;;;;4.43;3.20;;;;;;;5.11;51.05;94840.84;5049660;28;20040;-72
2023/11/19 10:44:11;;;;;;;6.55;2.95;;;;;;;4.90;51.44;94838.66;5074104;28;20698;-72
2023/11/19 10:46:39;;;;;;;3.97;2.97;;;;;;;5.08;51.58;94830.72;5060512;28;20448;-72
2023/11/19 10:49:06;;;;;;;4.30;3.03;;;;;;;5.07;50.90;94844.50;5075833;28;20036;-73
2023/11/19 10:51:31;;;;;;;3.95;2.90;;;;;;;4.77;50.96;94806.03;5062990;28;20108;-72
2023/11/19 10:53:59;;;;;;;6.78;3.20;;;;;;;4.94;51.13;94836.72;5053542;28;20064;-72
2023/11/19 10:56:25;;;;;;;3.10;2.45;;;;;;;4.99;50.79;94841.59;5070135;28;20060;-72
2023/11/19 10:58:50;;;;;;;4.82;3.50;;;;;;;4.91;51.33;94839.47;5084513;28;20623;-71
2023/11/19 11:01:18;;;;;;;4.68;3.00;;;;;;;5.00;50.94;94854.38;5035945;28;20578;-69
2023/11/19 11:03:45;;;;;;;4.88;3.33;;;;;;;4.79;51.60;94865.94;5049536;28;20083;-70
2023/11/19 11:06:11;;;;;;;3.90;3.10;;;;;;;4.68;51.00;94823.66;5033064;28;20540;-72
2023/11/19 11:08:36;;;;;;;3.90;3.00;;;;;;;4.89;50.70;94842.13;5051421;28;20046;-71
2023/11/19 11:11:02;;;;;;;3.97;2.97;;;;;;;4.85;50.74;94848.41;5052500;28;20032;-72
2023/11/19 11:13:29;;;;;;;6.80;4.10;;;;;;;4.75;51.24;94818.16;5045988;28;20090;-72
2023/11/19 11:15:56;;;;;;;6.10;4.22;;;;;;;5.00;51.22;94822.66;5067020;28;20675;-72
2023/11/19 11:18:22;;;;;;;3.95;3.08;;;;;;;4.86;50.54;94819.16;5064974;28;20082;-72
2023/11/19 11:20:47;;;;;;;5.78;3.97;;;;;;;4.97;51.22;94822.84;5069096;28;20029;-72
2023/11/19 11:23:41;;;;;;;6.63;4.28;;;;;;;5.11;50.71;94827.97;5072634;28;20032;-72
2023/11/19 11:26:32;;;;;;;3.38;2.80;;;;;;;5.07;50.81;94816.19;5070108;28;20034;-72
2023/11/19 11:29:09;;;;;;;6.32;3.83;;;;;;;5.22;50.46;94828.13;5050109;28;20036;-72
2023/11/19 11:32:02;;;;;;;5.32;3.38;;;;;;;5.27;50.19;94826.13;5069492;28;20048;-72
2023/11/19 11:34:31;;;;;;;4.95;3.92;;;;;;;5.28;50.51;94822.59;5055477;28;20501;-72
2023/11/19 11:37:09;;;;;;;5.65;3.80;;;;;;;5.14;50.55;94830.34;5069362;28;20040;-72